createdAt,value
2018-05-12T00:00:06.551Z,99.90
2018-05-12T00:02:34.160Z,99.90
2018-05-12T00:05:01.701Z,99.90
2018-05-12T00:07:29.225Z,99.90
2018-05-12T00:09:56.732Z,99.90
2018-05-12T00:12:24.253Z,99.90
2018-05-12T00:14:51.783Z,99.90
2018-05-12T00:17:19.316Z,99.90
2018-05-12T00:19:46.853Z,99.90
2018-05-12T00:22:14.354Z,99.90
2018-05-12T00:24:42.640Z,99.80
2018-05-12T00:27:10.144Z,99.80
2018-05-12T00:29:37.682Z,99.90
2018-05-12T00:32:05.180Z,99.90
2018-05-12T00:34:32.708Z,99.90
2018-05-12T00:37:00.235Z,99.90
2018-05-12T00:39:27.741Z,99.90
2018-05-12T00:41:55.287Z,99.90
2018-05-12T00:44:22.822Z,99.90
2018-05-12T00:46:50.327Z,99.90
2018-05-12T00:49:17.843Z,99.90
2018-05-12T00:51:45.373Z,99.90
2018-05-12T00:54:13.685Z,99.90
2018-05-12T00:56:41.196Z,99.90
2018-05-12T00:59:09.486Z,99.90
2018-05-12T01:01:37.779Z,99.90
2018-05-12T01:04:05.288Z,99.90
2018-05-12T01:06:32.808Z,99.90
2018-05-12T01:09:00.316Z,99.90
2018-05-12T01:11:28.608Z,99.90
2018-05-12T01:13:56.887Z,99.90
2018-05-12T01:16:25.175Z,99.90
2018-05-12T01:18:52.737Z,99.90
2018-05-12T01:21:20.240Z,99.90
2018-05-12T01:23:47.750Z,99.90
2018-05-12T01:26:15.315Z,99.90
2018-05-12T01:28:42.798Z,99.90
2018-05-12T01:31:10.345Z,99.90
2018-05-12T01:33:37.863Z,99.90
2018-05-12T01:36:06.146Z,99.90
2018-05-12T01:38:34.440Z,99.90
2018-05-12T01:41:01.958Z,99.90
2018-05-12T01:43:29.543Z,99.90
2018-05-12T01:45:57.827Z,99.90
2018-05-12T01:48:26.107Z,99.90
2018-05-12T01:50:53.638Z,99.90
2018-05-12T01:53:21.160Z,99.90
2018-05-12T01:55:48.692Z,99.90
2018-05-12T01:58:16.206Z,99.90
2018-05-12T02:00:43.737Z,99.90
2018-05-12T02:03:11.281Z,99.90
2018-05-12T02:05:38.784Z,99.90
2018-05-12T02:08:06.308Z,99.90
2018-05-12T02:10:33.808Z,99.90
2018-05-12T02:13:02.103Z,99.90
2018-05-12T02:15:29.650Z,99.90
2018-05-12T02:17:57.925Z,99.90
2018-05-12T02:20:25.475Z,99.90
2018-05-12T02:22:52.999Z,99.90
2018-05-12T02:25:20.548Z,99.90
2018-05-12T02:27:48.062Z,99.90
2018-05-12T02:30:16.341Z,99.90
2018-05-12T02:32:43.904Z,99.90
2018-05-12T02:35:12.178Z,99.90
2018-05-12T02:37:40.479Z,99.90
2018-05-12T02:40:07.987Z,99.90
2018-05-12T02:42:35.512Z,99.90
2018-05-12T02:45:03.026Z,99.90
2018-05-12T02:47:31.334Z,99.90
2018-05-12T02:49:58.849Z,99.90
2018-05-12T02:52:26.360Z,99.90
2018-05-12T02:54:53.896Z,99.90
2018-05-12T02:57:21.455Z,99.90
2018-05-12T02:59:49.010Z,99.90
2018-05-12T03:02:17.287Z,99.90
2018-05-12T03:04:45.597Z,99.90
2018-05-12T03:07:13.114Z,99.90
2018-05-12T03:09:41.408Z,99.90
2018-05-12T03:12:09.690Z,99.90
2018-05-12T03:14:37.233Z,99.90
2018-05-12T03:17:05.527Z,99.90
2018-05-12T03:19:33.051Z,99.90
2018-05-12T03:22:01.359Z,99.90
2018-05-12T03:24:28.878Z,99.90
2018-05-12T03:26:56.420Z,99.90
2018-05-12T03:29:23.948Z,99.90
2018-05-12T03:31:51.480Z,99.90
2018-05-12T03:34:19.744Z,99.90
2018-05-12T03:36:47.281Z,99.90
2018-05-12T03:39:14.826Z,99.90
2018-05-12T03:41:42.342Z,99.90
2018-05-12T03:44:09.875Z,99.90
2018-05-12T03:46:37.393Z,99.90
2018-05-12T03:49:04.949Z,99.90
2018-05-12T03:51:32.461Z,99.90
2018-05-12T03:54:00.855Z,99.90
2018-05-12T03:56:28.310Z,99.90
2018-05-12T03:58:55.831Z,99.90
2018-05-12T04:01:23.378Z,99.90
2018-05-12T04:03:50.904Z,99.90
2018-05-12T04:06:30.410Z,99.90
2018-05-12T04:09:10.474Z,99.90
2018-05-12T04:11:50.713Z,99.90
2018-05-12T04:14:19.116Z,99.90
2018-05-12T04:16:46.628Z,99.90
2018-05-12T04:19:14.138Z,99.90
2018-05-12T04:21:41.669Z,99.90
2018-05-12T04:24:09.169Z,99.90
2018-05-12T04:26:36.720Z,99.90
2018-05-12T04:29:04.229Z,99.90
2018-05-12T04:31:31.768Z,99.90
2018-05-12T04:33:59.290Z,99.90
2018-05-12T04:36:26.801Z,99.90
2018-05-12T04:38:54.321Z,99.90
2018-05-12T04:41:21.839Z,99.90
2018-05-12T04:43:49.361Z,99.90
2018-05-12T04:46:16.906Z,99.90
2018-05-12T04:48:44.440Z,99.90
2018-05-12T04:51:11.966Z,99.90
2018-05-12T04:53:39.485Z,99.90
2018-05-12T04:56:07.027Z,99.90
2018-05-12T04:58:34.533Z,99.90
2018-05-12T05:01:02.084Z,99.90
2018-05-12T05:03:29.589Z,99.90
2018-05-12T05:05:57.144Z,99.90
2018-05-12T05:08:25.417Z,99.90
2018-05-12T05:10:53.701Z,99.90
2018-05-12T05:13:21.251Z,99.90
2018-05-12T05:15:48.791Z,99.90
2018-05-12T05:18:16.319Z,99.90
2018-05-12T05:20:43.836Z,99.90
2018-05-12T05:23:12.141Z,99.90
2018-05-12T05:25:39.654Z,99.90
2018-05-12T05:28:07.973Z,99.90
2018-05-12T05:30:35.485Z,99.90
2018-05-12T05:33:03.013Z,99.90
2018-05-12T05:35:30.534Z,99.90
2018-05-12T05:37:58.052Z,99.90
2018-05-12T05:40:25.569Z,99.90
2018-05-12T05:42:53.165Z,99.90
2018-05-12T05:45:20.689Z,99.90
2018-05-12T05:47:48.224Z,99.90
2018-05-12T05:50:15.916Z,99.90
2018-05-12T05:52:43.375Z,99.90
2018-05-12T05:55:10.918Z,99.90
2018-05-12T05:57:38.449Z,99.90
2018-05-12T06:00:06.758Z,99.90
2018-05-12T06:02:34.264Z,99.90
2018-05-12T06:05:01.795Z,99.90
2018-05-12T06:07:29.317Z,99.90
2018-05-12T06:09:56.820Z,99.90
2018-05-12T06:12:24.335Z,99.90
2018-05-12T06:14:51.841Z,99.90
2018-05-12T06:17:19.362Z,99.90
2018-05-12T06:19:46.918Z,99.90
2018-05-12T06:22:14.440Z,99.90
2018-05-12T06:24:41.966Z,99.90
2018-05-12T06:27:09.522Z,99.90
2018-05-12T06:29:37.042Z,99.90
2018-05-12T06:32:04.557Z,99.90
2018-05-12T06:34:32.102Z,99.90
2018-05-12T06:36:59.617Z,99.90
2018-05-12T06:39:27.165Z,99.90
2018-05-12T06:41:55.429Z,99.00
2018-05-12T06:44:23.733Z,97.70
2018-05-12T06:46:51.263Z,97.70
2018-05-12T06:49:18.786Z,98.50
2018-05-12T06:51:46.296Z,97.40
2018-05-12T06:54:14.580Z,95.10
2018-05-12T06:56:42.874Z,94.50
2018-05-12T06:59:10.387Z,94.50
2018-05-12T07:01:37.917Z,93.30
2018-05-12T07:04:06.182Z,91.20
2018-05-12T07:06:33.710Z,91.20
2018-05-12T07:09:02.015Z,89.40
2018-05-12T07:11:29.541Z,89.40
2018-05-12T07:13:57.824Z,89.40
2018-05-12T07:16:25.340Z,89.20
2018-05-12T07:18:52.870Z,88.80
2018-05-12T07:21:20.367Z,86.50
2018-05-12T07:23:48.099Z,85.80
2018-05-12T07:26:16.545Z,80.30
2018-05-12T07:28:44.076Z,80.20
2018-05-12T07:31:12.374Z,83.10
2018-05-12T07:33:40.675Z,81.10
2018-05-12T07:36:08.222Z,81.00
2018-05-12T07:38:35.754Z,81.00
2018-05-12T07:41:04.023Z,82.30
2018-05-12T07:43:31.557Z,82.30
2018-05-12T07:45:59.060Z,84.10
2018-05-12T07:48:27.359Z,79.90
2018-05-12T07:50:54.901Z,79.80
2018-05-12T07:53:23.187Z,78.40
2018-05-12T07:55:50.723Z,78.40
2018-05-12T07:58:18.253Z,77.50
2018-05-12T08:00:45.780Z,76.80
2018-05-12T08:03:13.312Z,76.90
2018-05-12T08:05:41.615Z,74.20
2018-05-12T08:08:09.131Z,74.20
2018-05-12T08:10:37.418Z,74.40
2018-05-12T08:13:05.711Z,73.30
2018-05-12T08:15:33.252Z,73.20
2018-05-12T08:18:01.532Z,74.70
2018-05-12T08:20:29.810Z,74.10
2018-05-12T08:22:58.141Z,73.30
2018-05-12T08:25:25.645Z,73.30
2018-05-12T08:27:53.950Z,73.10
2018-05-12T08:30:21.463Z,73.10
2018-05-12T08:32:49.742Z,71.90
2018-05-12T08:35:18.057Z,70.80
2018-05-12T08:37:46.298Z,70.80
2018-05-12T08:40:14.582Z,68.80
2018-05-12T08:42:42.934Z,70.00
2018-05-12T08:45:10.393Z,70.00
2018-05-12T08:47:37.899Z,67.90
2018-05-12T08:50:05.456Z,66.10
2018-05-12T08:52:32.971Z,68.40
2018-05-12T08:55:00.494Z,70.10
2018-05-12T08:57:28.029Z,69.60
2018-05-12T08:59:55.532Z,68.10
2018-05-12T09:02:23.058Z,69.40
2018-05-12T09:04:50.582Z,67.50
2018-05-12T09:07:18.998Z,69.30
2018-05-12T09:09:46.399Z,69.30
2018-05-12T09:12:13.913Z,67.30
2018-05-12T09:14:41.415Z,69.40
2018-05-12T09:17:08.947Z,67.70
2018-05-12T09:19:37.450Z,64.30
2018-05-12T09:22:04.967Z,64.30
2018-05-12T09:24:32.486Z,63.40
2018-05-12T09:27:00.768Z,65.70
2018-05-12T09:29:29.057Z,66.60
2018-05-12T09:31:56.558Z,66.60
2018-05-12T09:34:24.101Z,64.90
2018-05-12T09:36:51.601Z,62.30
2018-05-12T09:39:19.146Z,63.10
2018-05-12T09:41:46.662Z,62.90
2018-05-12T09:44:14.201Z,60.00
2018-05-12T09:46:42.465Z,62.80
2018-05-12T09:49:10.749Z,60.50
2018-05-12T09:51:39.058Z,61.10
2018-05-12T09:54:06.596Z,61.10
2018-05-12T09:56:34.887Z,59.20
2018-05-12T09:59:02.397Z,59.30
2018-05-12T10:01:29.914Z,58.40
2018-05-12T10:03:57.427Z,58.80
2018-05-12T10:06:24.988Z,61.10
2018-05-12T10:08:53.259Z,62.20
2018-05-12T10:11:20.767Z,62.20
2018-05-12T10:13:48.289Z,59.60
2018-05-12T10:16:16.570Z,59.20
2018-05-12T10:18:44.881Z,54.80
2018-05-12T10:21:12.388Z,54.80
2018-05-12T10:23:40.702Z,55.90
2018-05-12T10:26:08.264Z,55.80
2018-05-12T10:28:36.535Z,57.80
2018-05-12T10:31:04.052Z,57.70
2018-05-12T10:33:31.591Z,57.20
2018-05-12T10:35:59.102Z,53.70
2018-05-12T10:38:26.637Z,57.60
2018-05-12T10:40:54.158Z,57.80
2018-05-12T10:43:21.674Z,58.30
2018-05-12T10:45:49.982Z,55.30
2018-05-12T10:48:17.483Z,55.30
2018-05-12T10:50:44.994Z,58.40
2018-05-12T10:53:12.496Z,57.20
2018-05-12T10:55:40.033Z,60.70
2018-05-12T10:58:07.543Z,60.90
2018-05-12T11:00:35.822Z,54.50
2018-05-12T11:03:03.355Z,54.50
2018-05-12T11:05:30.868Z,54.90
2018-05-12T11:07:58.388Z,53.50
2018-05-12T11:10:26.667Z,57.10
2018-05-12T11:12:54.952Z,56.50
2018-05-12T11:15:22.483Z,56.60
2018-05-12T11:17:50.022Z,56.20
2018-05-12T11:20:17.634Z,56.60
2018-05-12T11:22:45.093Z,58.50
2018-05-12T11:25:12.595Z,58.90
2018-05-12T11:27:40.111Z,59.70
2018-05-12T11:30:07.652Z,57.10
2018-05-12T11:32:35.918Z,58.90
2018-05-12T11:35:04.200Z,58.40
2018-05-12T11:37:32.485Z,58.10
2018-05-12T11:40:00.767Z,57.40
2018-05-12T11:42:28.356Z,57.30
2018-05-12T11:44:55.895Z,54.40
2018-05-12T11:47:23.411Z,55.80
2018-05-12T11:49:50.948Z,56.70
2018-05-12T11:52:18.477Z,55.00
2018-05-12T11:54:45.983Z,55.40
2018-05-12T11:57:13.497Z,51.40
2018-05-12T11:59:41.011Z,49.00
2018-05-12T12:02:09.318Z,51.90
2018-05-12T12:04:36.841Z,51.80
2018-05-12T12:07:04.379Z,52.50
2018-05-12T12:09:31.891Z,51.30
2018-05-12T12:11:59.431Z,50.30
2018-05-12T12:14:27.721Z,45.30
2018-05-12T12:16:56.000Z,44.60
2018-05-12T12:19:24.288Z,45.20
2018-05-12T12:21:51.819Z,45.30
2018-05-12T12:24:20.117Z,46.80
2018-05-12T12:26:48.423Z,44.30
2018-05-12T12:29:15.961Z,44.30
2018-05-12T12:31:43.480Z,44.40
2018-05-12T12:34:11.013Z,44.80
2018-05-12T12:36:38.539Z,47.40
2018-05-12T12:39:06.037Z,47.30
2018-05-12T12:41:33.587Z,45.00
2018-05-12T12:44:01.097Z,46.10
2018-05-12T12:46:28.662Z,44.70
2018-05-12T12:48:56.966Z,46.10
2018-05-12T12:51:24.503Z,46.10
2018-05-12T12:53:52.000Z,44.90
2018-05-12T12:56:19.552Z,46.70
2018-05-12T12:58:47.053Z,48.20
2018-05-12T13:01:14.578Z,48.60
2018-05-12T13:03:42.120Z,48.30
2018-05-12T13:06:09.617Z,50.00
2018-05-12T13:08:37.149Z,47.20
2018-05-12T13:11:04.652Z,47.50
2018-05-12T13:13:32.945Z,48.30
2018-05-12T13:16:00.471Z,48.30
2018-05-12T13:18:28.798Z,48.50
2018-05-12T13:20:56.305Z,48.40
2018-05-12T13:23:23.845Z,48.60
2018-05-12T13:25:51.348Z,48.20
2018-05-12T13:28:20.602Z,50.10
2018-05-12T13:30:48.134Z,48.00
2018-05-12T13:33:15.637Z,47.70
2018-05-12T13:35:43.168Z,47.20
2018-05-12T13:38:10.692Z,49.80
2018-05-12T13:40:38.216Z,49.80
2018-05-12T13:43:05.715Z,48.20
2018-05-12T13:45:33.261Z,46.80
2018-05-12T13:48:00.829Z,47.90
2018-05-12T13:50:28.372Z,48.40
2018-05-12T13:52:56.653Z,47.20
2018-05-12T13:55:24.916Z,48.10
2018-05-12T13:57:53.224Z,47.20
2018-05-12T14:00:20.746Z,47.20
2018-05-12T14:02:48.266Z,47.30
2018-05-12T14:05:15.772Z,48.70
2018-05-12T14:07:44.129Z,48.90
2018-05-12T14:10:11.592Z,48.90
2018-05-12T14:12:39.115Z,46.10
2018-05-12T14:15:06.618Z,46.10
2018-05-12T14:17:34.123Z,45.80
2018-05-12T14:20:01.664Z,44.80
2018-05-12T14:22:29.186Z,45.00
2018-05-12T14:24:56.726Z,48.30
2018-05-12T14:27:24.246Z,46.20
2018-05-12T14:29:51.763Z,46.20
2018-05-12T14:32:20.071Z,43.00
2018-05-12T14:34:48.377Z,43.70
2018-05-12T14:37:15.893Z,43.80
2018-05-12T14:39:43.447Z,42.80
2018-05-12T14:42:11.713Z,44.60
2018-05-12T14:44:40.078Z,44.60
2018-05-12T14:47:07.671Z,44.20
2018-05-12T14:49:35.937Z,42.80
2018-05-12T14:52:04.222Z,41.20
2018-05-12T14:54:31.746Z,41.10
2018-05-12T14:56:59.277Z,42.20
2018-05-12T14:59:26.821Z,44.40
2018-05-12T15:01:54.365Z,43.10
2018-05-12T15:04:22.633Z,48.20
2018-05-12T15:06:50.914Z,49.80
2018-05-12T15:09:19.206Z,50.70
2018-05-12T15:11:46.749Z,50.70
2018-05-12T15:14:15.032Z,53.00
2018-05-12T15:16:42.552Z,52.80
2018-05-12T15:19:10.089Z,51.40
2018-05-12T15:21:37.603Z,51.70
2018-05-12T15:24:05.880Z,52.40
2018-05-12T15:26:34.166Z,53.40
2018-05-12T15:29:01.734Z,53.40
2018-05-12T15:31:29.237Z,52.80
2018-05-12T15:33:56.740Z,52.70
2018-05-12T15:36:24.287Z,53.90
2018-05-12T15:38:52.593Z,57.40
2018-05-12T15:41:20.127Z,57.40
2018-05-12T15:43:48.494Z,55.10
2018-05-12T15:46:15.952Z,55.10
2018-05-12T15:48:44.224Z,55.40
2018-05-12T15:51:11.796Z,55.40
2018-05-12T15:53:40.077Z,54.80
2018-05-12T15:56:07.615Z,54.80
2018-05-12T15:58:35.152Z,57.80
2018-05-12T16:01:02.673Z,56.40
2018-05-12T16:03:30.188Z,55.90
2018-05-12T16:05:57.750Z,56.20
2018-05-12T16:08:25.260Z,55.40
2018-05-12T16:10:52.784Z,54.10
2018-05-12T16:13:21.081Z,54.20
2018-05-12T16:15:48.585Z,54.20
2018-05-12T16:18:16.125Z,55.20
2018-05-12T16:20:43.631Z,55.20
2018-05-12T16:23:11.908Z,55.60
2018-05-12T16:25:40.249Z,56.60
2018-05-12T16:28:07.797Z,56.50
2018-05-12T16:30:35.316Z,55.60
2018-05-12T16:33:02.836Z,55.70
2018-05-12T16:35:30.361Z,55.60
2018-05-12T16:37:57.864Z,54.70
2018-05-12T16:40:25.398Z,53.90
2018-05-12T16:42:52.919Z,53.50
2018-05-12T16:45:20.435Z,53.10
2018-05-12T16:47:47.952Z,53.30
2018-05-12T16:50:15.456Z,53.80
2018-05-12T16:52:42.982Z,53.50
2018-05-12T16:55:10.502Z,54.30
2018-05-12T16:57:38.020Z,53.70
2018-05-12T17:00:05.534Z,55.30
2018-05-12T17:02:33.118Z,54.90
2018-05-12T17:05:01.432Z,55.20
2018-05-12T17:07:28.975Z,55.20
2018-05-12T17:09:56.480Z,54.60
2018-05-12T17:12:24.098Z,54.00
2018-05-12T17:14:52.306Z,54.70
2018-05-12T17:17:20.607Z,54.90
2018-05-12T17:19:48.109Z,54.90
2018-05-12T17:22:15.604Z,55.40
2018-05-12T17:24:43.161Z,55.60
2018-05-12T17:27:10.678Z,55.80
2018-05-12T17:29:38.207Z,56.20
2018-05-12T17:32:05.718Z,56.70
2018-05-12T17:34:34.004Z,56.60
2018-05-12T17:37:02.282Z,56.80
2018-05-12T17:39:30.581Z,56.70
2018-05-12T17:41:58.091Z,56.60
2018-05-12T17:44:25.625Z,57.50
2018-05-12T17:46:53.141Z,58.10
2018-05-12T17:49:20.647Z,57.60
2018-05-12T17:51:48.178Z,58.00
2018-05-12T17:54:15.701Z,58.20
2018-05-12T17:56:43.998Z,58.70
2018-05-12T17:59:11.525Z,58.60
2018-05-12T18:01:39.019Z,58.90
2018-05-12T18:04:07.318Z,59.40
2018-05-12T18:06:34.812Z,59.40
2018-05-12T18:09:02.348Z,59.70
2018-05-12T18:11:29.908Z,59.30
2018-05-12T18:13:57.413Z,59.60
2018-05-12T18:16:25.694Z,61.60
2018-05-12T18:18:53.993Z,62.50
2018-05-12T18:21:21.521Z,62.40
2018-05-12T18:23:49.789Z,63.70
2018-05-12T18:26:18.091Z,63.80
2018-05-12T18:28:45.620Z,63.70
2018-05-12T18:31:13.140Z,64.20
2018-05-12T18:33:40.667Z,65.10
2018-05-12T18:36:08.183Z,64.40
2018-05-12T18:38:35.707Z,65.00
2018-05-12T18:41:03.249Z,65.40
2018-05-12T18:43:30.770Z,66.10
2018-05-12T18:45:58.284Z,66.10
2018-05-12T18:48:25.809Z,66.30
2018-05-12T18:50:53.348Z,66.90
2018-05-12T18:53:20.870Z,66.90
2018-05-12T18:55:48.394Z,66.70
2018-05-12T18:58:16.256Z,67.00
2018-05-12T19:00:43.814Z,67.90
2018-05-12T19:03:12.100Z,68.70
2018-05-12T19:05:39.619Z,68.70
2018-05-12T19:08:07.153Z,69.00
2018-05-12T19:10:34.656Z,68.60
2018-05-12T19:13:02.937Z,69.20
2018-05-12T19:15:31.229Z,69.50
2018-05-12T19:17:58.808Z,69.40
2018-05-12T19:20:26.342Z,69.50
2018-05-12T19:22:53.862Z,70.00
2018-05-12T19:25:21.378Z,70.20
2018-05-12T19:27:48.895Z,70.40
2018-05-12T19:30:17.190Z,70.80
2018-05-12T19:32:45.545Z,71.30
2018-05-12T19:35:12.999Z,71.30
2018-05-12T19:37:40.520Z,71.60
2018-05-12T19:40:08.038Z,72.60
2018-05-12T19:42:36.344Z,73.00
2018-05-12T19:45:03.897Z,73.00
2018-05-12T19:47:31.426Z,74.20
2018-05-12T19:49:59.691Z,74.70
2018-05-12T19:52:27.218Z,74.50
2018-05-12T19:54:54.730Z,74.70
2018-05-12T19:57:23.039Z,75.10
2018-05-12T19:59:51.814Z,75.10
2018-05-12T20:02:19.399Z,75.70
2018-05-12T20:04:46.924Z,76.40
2018-05-12T20:07:14.424Z,76.30
2018-05-12T20:09:42.112Z,76.30
2018-05-12T20:12:09.598Z,76.90
2018-05-12T20:14:37.121Z,77.70
2018-05-12T20:17:04.638Z,78.40
2018-05-12T20:19:32.160Z,78.40
2018-05-12T20:22:00.425Z,80.00
2018-05-12T20:24:28.715Z,79.80
2018-05-12T20:26:57.038Z,79.90
2018-05-12T20:29:24.557Z,79.90
2018-05-12T20:31:52.084Z,80.00
2018-05-12T20:34:19.595Z,80.80
2018-05-12T20:36:47.125Z,80.70
2018-05-12T20:39:15.424Z,82.20
2018-05-12T20:41:42.978Z,82.10
2018-05-12T20:44:10.489Z,82.60
2018-05-12T20:46:38.026Z,83.40
2018-05-12T20:49:05.545Z,85.10
2018-05-12T20:51:33.052Z,86.90
2018-05-12T20:54:00.591Z,86.80
2018-05-12T20:56:28.103Z,86.80
2018-05-12T20:58:56.399Z,87.40
2018-05-12T21:01:23.921Z,87.30
2018-05-12T21:03:51.453Z,87.30
2018-05-12T21:06:19.113Z,87.60
2018-05-12T21:08:46.639Z,87.10
2018-05-12T21:11:14.146Z,87.50
2018-05-12T21:13:41.683Z,87.30
2018-05-12T21:16:09.209Z,87.50
2018-05-12T21:18:37.486Z,87.80
2018-05-12T21:21:05.791Z,89.30
2018-05-12T21:23:33.306Z,89.20
2018-05-12T21:26:01.620Z,89.10
2018-05-12T21:28:29.136Z,89.00
2018-05-12T21:30:56.685Z,89.20
2018-05-12T21:33:24.189Z,90.00
2018-05-12T21:35:51.730Z,91.30
2018-05-12T21:38:20.016Z,90.80
2018-05-12T21:40:47.544Z,90.70
2018-05-12T21:43:15.077Z,90.80
2018-05-12T21:45:42.591Z,90.90
2018-05-12T21:48:10.123Z,91.30
2018-05-12T21:50:37.620Z,91.80
2018-05-12T21:53:05.137Z,92.00
2018-05-12T21:55:33.454Z,91.80
2018-05-12T21:58:00.982Z,91.80
2018-05-12T22:00:29.252Z,92.30
2018-05-12T22:02:56.744Z,92.30
2018-05-12T22:05:24.273Z,92.80
2018-05-12T22:07:52.625Z,92.40
2018-05-12T22:10:20.695Z,92.40
2018-05-12T22:12:48.216Z,92.00
2018-05-12T22:15:15.732Z,92.30
2018-05-12T22:17:43.249Z,92.70
2018-05-12T22:20:10.805Z,92.80
2018-05-12T22:22:38.314Z,92.50
2018-05-12T22:25:06.620Z,93.20
2018-05-12T22:27:34.120Z,93.20
2018-05-12T22:30:01.629Z,93.50
2018-05-12T22:32:29.155Z,93.20
2018-05-12T22:34:56.684Z,93.50
2018-05-12T22:37:24.196Z,93.20
2018-05-12T22:39:52.472Z,94.10
2018-05-12T22:42:20.785Z,94.20
2018-05-12T22:44:48.281Z,94.20
2018-05-12T22:47:15.870Z,95.00
2018-05-12T22:49:43.349Z,96.60
2018-05-12T22:52:10.902Z,97.00
2018-05-12T22:54:38.940Z,97.00
2018-05-12T22:57:06.455Z,97.20
2018-05-12T22:59:34.032Z,97.20
2018-05-12T23:02:01.543Z,97.40
2018-05-12T23:04:29.060Z,97.10
2018-05-12T23:06:56.573Z,97.30
2018-05-12T23:09:24.103Z,97.00
2018-05-12T23:11:52.378Z,97.20
2018-05-12T23:14:20.682Z,96.30
2018-05-12T23:16:48.192Z,96.30
2018-05-12T23:19:15.729Z,96.10
2018-05-12T23:21:43.250Z,96.80
2018-05-12T23:24:10.804Z,97.30
2018-05-12T23:26:38.328Z,95.80
2018-05-12T23:29:05.839Z,96.40
2018-05-12T23:31:33.377Z,96.40
2018-05-12T23:34:00.895Z,96.60
2018-05-12T23:36:28.440Z,96.50
2018-05-12T23:38:55.956Z,96.70
2018-05-12T23:41:23.492Z,98.50
2018-05-12T23:43:51.022Z,97.90
2018-05-12T23:46:18.558Z,98.60
2018-05-12T23:48:46.094Z,97.00
2018-05-12T23:51:13.672Z,97.50
2018-05-12T23:53:41.195Z,98.10
2018-05-12T23:56:09.479Z,98.00
2018-05-12T23:58:37.810Z,97.40
